Time;durP1;ratioP1;P1;durP2;ratioP2;P2;SDS_P1;SDS_P2;PMS_P1;PMS_P2;Temp;Humidity;BMP_temperature;BMP_pressure;BME280_temperature;BME280_humidity;BME280_pressure;Samples;Min_cycle;Max_cycle;Signal;HPM_P1;HPM_P2
2021/10/28 00:14:24;;;;;;;1354.75;999.90;;;;;;;-140.79;100.00;63287.88;5027743;28;20120;-63
2021/10/28 00:16:51;;;;;;;1354.63;999.90;;;;;;;-140.79;100.00;63287.88;5059364;28;20030;-63
2021/10/28 00:19:17;;;;;;;1357.10;999.90;;;;;;;-140.79;100.00;63287.88;5027438;28;20033;-63
2021/10/28 00:21:44;;;;;;;1360.68;999.90;;;;;;;-140.79;100.00;63287.88;5010137;28;20029;-63
2021/10/28 00:24:11;;;;;;;1352.43;999.90;;;;;;;-140.79;100.00;63287.88;5026476;28;20041;-64
2021/10/28 00:26:38;;;;;;;1355.38;999.90;;;;;;;-140.79;100.00;63287.88;5026377;28;20108;-63
2021/10/28 00:29:06;;;;;;;1356.68;999.90;;;;;;;-140.79;100.00;63287.88;5059426;28;20112;-64
2021/10/28 00:31:32;;;;;;;1355.18;999.90;;;;;;;-140.79;100.00;63287.88;5023208;28;20579;-63
2021/10/28 00:33:58;;;;;;;1359.20;999.90;;;;;;;-140.79;100.00;63287.88;5017852;28;20136;-64
2021/10/28 00:36:24;;;;;;;1357.32;999.90;;;;;;;-140.79;100.00;63287.88;5007710;28;20168;-64
2021/10/28 00:38:50;;;;;;;1352.63;999.90;;;;;;;-140.79;100.00;63287.88;5007500;28;20068;-63
2021/10/28 00:41:18;;;;;;;1348.88;999.90;;;;;;;-140.79;100.00;63287.88;5022390;28;20062;-64
2021/10/28 00:43:45;;;;;;;1359.25;999.90;;;;;;;-140.79;100.00;63287.88;5007176;28;20072;-64
2021/10/28 00:46:11;;;;;;;1363.18;999.90;;;;;;;-140.79;100.00;63287.88;5007379;28;20033;-64
2021/10/28 00:48:37;;;;;;;1359.07;999.90;;;;;;;-140.79;100.00;63287.88;5007266;28;20044;-63
2021/10/28 00:51:06;;;;;;;1361.93;999.90;;;;;;;-140.79;100.00;63287.88;5007271;28;20018;-63
2021/10/28 00:53:32;;;;;;;1359.13;999.90;;;;;;;-140.79;100.00;63287.88;5006940;28;20531;-63
2021/10/28 00:55:57;;;;;;;1361.15;999.90;;;;;;;-140.79;100.00;63287.88;5007050;28;20030;-64
2021/10/28 00:58:23;;;;;;;1363.45;999.90;;;;;;;-140.79;100.00;63287.88;5022568;28;20034;-64
2021/10/28 01:00:52;;;;;;;1359.43;999.90;;;;;;;-140.79;100.00;63287.88;4973118;28;20030;-63
2021/10/28 01:03:18;;;;;;;1360.55;999.90;;;;;;;-140.79;100.00;63287.88;5006327;28;20141;-63
2021/10/28 01:05:44;;;;;;;1361.55;999.90;;;;;;;-140.79;100.00;63287.88;5006511;28;20037;-64
2021/10/28 01:08:10;;;;;;;1351.03;999.90;;;;;;;-140.79;100.00;63287.88;5006925;28;20033;-63
2021/10/28 01:10:36;;;;;;;1357.32;999.90;;;;;;;-140.79;100.00;63287.88;5006835;28;20033;-63
2021/10/28 01:13:01;;;;;;;1352.93;999.90;;;;;;;-140.79;100.00;63287.88;5023065;28;20064;-63
2021/10/28 01:15:26;;;;;;;1355.20;999.90;;;;;;;-140.79;100.00;63287.88;5025325;28;20033;-63
2021/10/28 01:17:52;;;;;;;1350.05;999.90;;;;;;;-140.79;100.00;63287.88;5007795;28;20463;-62
2021/10/28 01:20:17;;;;;;;1352.90;999.90;;;;;;;-140.79;100.00;63287.88;5006893;28;20037;-63
2021/10/28 01:22:43;;;;;;;1350.65;999.90;;;;;;;-140.79;100.00;63287.88;5006690;28;20053;-62
2021/10/28 01:25:10;;;;;;;1351.18;999.90;;;;;;;-140.79;100.00;63287.88;5006625;28;20034;-63
2021/10/28 01:27:36;;;;;;;1353.10;999.90;;;;;;;-140.79;100.00;63287.88;5006531;28;20037;-61
2021/10/28 01:30:01;;;;;;;1352.28;999.90;;;;;;;-140.79;100.00;63287.88;5006732;28;20026;-63
2021/10/28 01:32:28;;;;;;;1352.05;999.90;;;;;;;-140.79;100.00;63287.88;5009918;28;20030;-63
2021/10/28 01:34:54;;;;;;;1349.97;999.90;;;;;;;-140.79;100.00;63287.88;5015858;28;20033;-63
2021/10/28 01:37:19;;;;;;;1347.03;999.90;;;;;;;-140.79;100.00;63287.88;5026384;28;20542;-63
2021/10/28 01:39:45;;;;;;;1346.35;999.90;;;;;;;-140.79;100.00;63287.88;5026256;28;20044;-63
2021/10/28 01:42:11;;;;;;;1347.40;999.90;;;;;;;-140.79;100.00;63287.88;5025855;28;20033;-63
2021/10/28 01:44:36;;;;;;;1348.55;999.90;;;;;;;-140.79;100.00;63287.88;5025684;28;20118;-63
2021/10/28 01:47:02;;;;;;;1347.22;999.90;;;;;;;-140.79;100.00;63287.88;5024517;28;20064;-63
2021/10/28 01:49:28;;;;;;;1348.20;999.90;;;;;;;-140.79;100.00;63287.88;5025962;28;20025;-63
2021/10/28 01:51:54;;;;;;;1346.10;999.90;;;;;;;-140.79;100.00;63287.88;5025829;28;20021;-63
2021/10/28 01:54:23;;;;;;;1345.85;999.90;;;;;;;-140.79;100.00;63287.88;5025614;28;20110;-63
2021/10/28 01:56:49;;;;;;;1350.45;999.90;;;;;;;-140.79;100.00;63287.88;5025560;28;20033;-63
2021/10/28 01:59:14;;;;;;;1348.15;999.90;;;;;;;-140.79;100.00;63287.88;5025725;28;20029;-62
2021/10/28 02:01:40;;;;;;;1343.88;999.90;;;;;;;-140.79;100.00;63287.88;5007676;28;20435;-63
2021/10/28 02:04:05;;;;;;;1343.22;999.90;;;;;;;-140.79;100.00;63287.88;5025617;28;20050;-63
2021/10/28 02:06:31;;;;;;;1342.43;999.90;;;;;;;-140.79;100.00;63287.88;5025382;28;20483;-63
2021/10/28 02:08:57;;;;;;;1347.85;999.90;;;;;;;-140.79;100.00;63287.88;5025436;28;20033;-63
2021/10/28 02:11:22;;;;;;;1342.57;999.90;;;;;;;-140.79;100.00;63287.88;5025219;28;20116;-63
2021/10/28 02:13:48;;;;;;;1343.20;999.90;;;;;;;-140.79;100.00;63287.88;5025524;28;20043;-64
2021/10/28 02:16:13;;;;;;;1339.82;999.90;;;;;;;-140.79;100.00;63287.88;5024406;28;20236;-64
2021/10/28 02:18:39;;;;;;;1340.80;999.90;;;;;;;-140.79;100.00;63287.88;5016928;28;20033;-64
2021/10/28 02:21:04;;;;;;;1338.80;999.90;;;;;;;-140.79;100.00;63287.88;5005381;28;20243;-64
2021/10/28 02:23:30;;;;;;;1341.45;999.90;;;;;;;-140.79;100.00;63287.88;5005467;28;20084;-64
2021/10/28 02:25:55;;;;;;;1343.30;999.90;;;;;;;-140.79;100.00;63287.88;5005694;28;20021;-64
2021/10/28 02:28:21;;;;;;;1342.47;999.90;;;;;;;-140.79;100.00;63287.88;5005251;28;20444;-64
2021/10/28 02:30:46;;;;;;;1344.78;999.90;;;;;;;-140.79;100.00;63287.88;5005420;28;20060;-64
2021/10/28 02:33:12;;;;;;;1341.47;999.90;;;;;;;-140.79;100.00;63287.88;5029687;28;20499;-64
2021/10/28 02:35:37;;;;;;;1344.47;999.90;;;;;;;-140.79;100.00;63287.88;5007736;28;20018;-64
2021/10/28 02:38:03;;;;;;;1345.38;999.90;;;;;;;-140.79;100.00;63287.88;5005538;28;20026;-64
2021/10/28 02:40:29;;;;;;;1339.30;999.90;;;;;;;-140.79;100.00;63287.88;5005023;28;20065;-64
2021/10/28 02:42:54;;;;;;;1338.30;999.90;;;;;;;-140.79;100.00;63287.88;5005112;28;20523;-64
2021/10/28 02:45:20;;;;;;;1337.38;999.90;;;;;;;-140.79;100.00;63287.88;5020458;28;20080;-64
2021/10/28 02:47:45;;;;;;;1338.72;999.90;;;;;;;-140.79;100.00;63287.88;5003925;28;20120;-64
2021/10/28 02:50:10;;;;;;;1334.82;999.90;;;;;;;-140.79;100.00;63287.88;5005156;28;20424;-64
2021/10/28 02:52:36;;;;;;;1344.10;999.90;;;;;;;-140.79;100.00;63287.88;5005113;28;20499;-64
2021/10/28 02:55:03;;;;;;;1339.60;999.90;;;;;;;-140.79;100.00;63287.88;5005077;28;20743;-64
2021/10/28 02:57:29;;;;;;;1341.93;999.90;;;;;;;-140.79;100.00;63287.88;5004972;28;20032;-64
2021/10/28 02:59:54;;;;;;;1340.95;999.90;;;;;;;-140.79;100.00;63287.88;4987515;28;20030;-64
2021/10/28 03:02:20;;;;;;;1337.38;999.90;;;;;;;-140.79;100.00;63287.88;5004803;28;20025;-64
2021/10/28 03:04:45;;;;;;;1333.03;999.90;;;;;;;-140.79;100.00;63287.88;5008216;28;20049;-64
2021/10/28 03:07:10;;;;;;;1334.97;999.90;;;;;;;-140.79;100.00;63287.88;5013022;28;20037;-63
2021/10/28 03:09:36;;;;;;;1335.05;999.90;;;;;;;-140.79;100.00;63287.88;5004779;28;20029;-63
2021/10/28 03:12:03;;;;;;;1332.68;999.90;;;;;;;-140.79;100.00;63287.88;5004611;28;20428;-63
2021/10/28 03:14:39;;;;;;;1327.90;999.90;;;;;;;-140.79;100.00;63287.88;5005002;28;20492;-63
2021/10/28 03:27:42;;;;;;;1345.57;999.90;;;;;;;-140.79;100.00;63287.88;4989978;28;20044;-64
2021/10/28 03:30:08;;;;;;;1342.07;999.90;;;;;;;-140.79;100.00;63287.88;4987255;28;20025;-64
2021/10/28 03:32:33;;;;;;;1342.07;999.90;;;;;;;-140.79;100.00;63287.88;5013347;28;20056;-64
2021/10/28 03:34:59;;;;;;;1343.88;999.90;;;;;;;-140.79;100.00;63287.88;5013427;28;20030;-64
2021/10/28 03:37:28;;;;;;;1340.97;999.90;;;;;;;-140.79;100.00;63287.88;5002371;28;20036;-63
2021/10/28 03:45:46;;;;;;;1347.32;999.90;;;;;;;-140.79;100.00;63287.88;5008411;28;20114;-64
2021/10/28 04:17:50;;;;;;;1336.15;999.90;;;;;;;-140.79;100.00;63287.88;5038887;28;20578;-62
2021/10/28 04:31:15;;;;;;;1335.68;999.90;;;;;;;-140.79;100.00;63287.88;5031639;28;20569;-63
2021/10/28 04:33:42;;;;;;;1335.65;999.90;;;;;;;-140.79;100.00;63287.88;5024732;28;20041;-63
2021/10/28 04:36:10;;;;;;;1333.03;999.90;;;;;;;-140.79;100.00;63287.88;5028458;28;20430;-63
2021/10/28 04:38:35;;;;;;;1330.28;999.90;;;;;;;-140.79;100.00;63287.88;5025886;28;20033;-62
2021/10/28 04:41:01;;;;;;;1328.88;999.90;;;;;;;-140.79;100.00;63287.88;5020119;28;20084;-62
2021/10/28 04:43:26;;;;;;;1323.53;999.90;;;;;;;-140.79;100.00;63287.88;5024704;28;20079;-62
2021/10/28 04:45:52;;;;;;;1324.80;999.90;;;;;;;-140.79;100.00;63287.88;5011973;28;20124;-64
2021/10/28 04:48:17;;;;;;;1325.90;999.90;;;;;;;-140.79;100.00;63287.88;5025431;28;20040;-65
2021/10/28 04:50:43;;;;;;;1325.97;999.90;;;;;;;-140.79;100.00;63287.88;5015419;28;20033;-65
2021/10/28 04:53:08;;;;;;;1344.40;999.90;;;;;;;-140.79;100.00;63287.88;5024814;28;20044;-65
2021/10/28 04:55:34;;;;;;;1331.20;999.90;;;;;;;-140.79;100.00;63287.88;4993829;28;20184;-65
2021/10/28 04:57:59;;;;;;;1336.57;999.90;;;;;;;-140.79;100.00;63287.88;5009188;28;20598;-64
2021/10/28 05:00:25;;;;;;;1335.95;999.90;;;;;;;-140.79;100.00;63287.88;5011768;28;20036;-64
2021/10/28 05:02:50;;;;;;;1337.47;999.90;;;;;;;-140.79;100.00;63287.88;5015028;28;20033;-65
2021/10/28 05:05:16;;;;;;;1330.75;999.90;;;;;;;-140.79;100.00;63287.88;5011405;28;20030;-64
2021/10/28 05:07:41;;;;;;;1325.88;999.90;;;;;;;-140.79;100.00;63287.88;5010002;28;20028;-64
2021/10/28 05:10:07;;;;;;;1328.90;999.90;;;;;;;-140.79;100.00;63287.88;5012924;28;20500;-64
2021/10/28 05:12:33;;;;;;;1324.07;999.90;;;;;;;-140.79;100.00;63287.88;5012455;28;20022;-65
2021/10/28 05:14:59;;;;;;;1319.03;999.90;;;;;;;-140.79;100.00;63287.88;5013323;28;20030;-64
2021/10/28 05:17:24;;;;;;;1322.72;999.90;;;;;;;-140.79;100.00;63287.88;4990832;28;20418;-64
2021/10/28 05:19:50;;;;;;;1326.80;999.90;;;;;;;-140.79;100.00;63287.88;4997293;28;20086;-63
2021/10/28 05:22:17;;;;;;;1330.13;999.90;;;;;;;-140.79;100.00;63287.88;5017141;28;20080;-65
2021/10/28 05:24:42;;;;;;;1329.40;999.90;;;;;;;-140.79;100.00;63287.88;5011324;28;20026;-65
2021/10/28 05:27:07;;;;;;;1330.97;999.90;;;;;;;-140.79;100.00;63287.88;5023756;28;20452;-64
2021/10/28 05:29:33;;;;;;;1333.32;999.90;;;;;;;-140.79;100.00;63287.88;5027646;28;20029;-64
2021/10/28 05:31:58;;;;;;;1336.50;999.90;;;;;;;-140.79;100.00;63287.88;5010042;28;20021;-63
2021/10/28 05:34:24;;;;;;;1341.20;999.90;;;;;;;-140.79;100.00;63287.88;5018407;28;20469;-63
2021/10/28 05:36:49;;;;;;;1334.18;999.90;;;;;;;-140.79;100.00;63287.88;5014927;28;20032;-63
2021/10/28 05:39:15;;;;;;;1336.07;999.90;;;;;;;-140.79;100.00;63287.88;5008785;28;20032;-64
2021/10/28 05:41:40;;;;;;;1328.43;999.90;;;;;;;-140.79;100.00;63287.88;4995405;28;20038;-64
2021/10/28 05:44:06;;;;;;;1327.40;999.90;;;;;;;-140.79;100.00;63287.88;5010468;28;20037;-64
2021/10/28 05:46:31;;;;;;;1321.38;999.90;;;;;;;-140.79;100.00;63287.88;5016980;28;20030;-64
2021/10/28 05:48:57;;;;;;;1328.60;999.90;;;;;;;-140.79;100.00;63287.88;5017590;28;20578;-64
2021/10/28 05:51:22;;;;;;;1326.65;999.90;;;;;;;-140.79;100.00;63287.88;5021321;28;20024;-66
2021/10/28 05:53:49;;;;;;;1324.47;999.90;;;;;;;-140.79;100.00;63287.88;4990092;28;20512;-67
2021/10/28 05:56:15;;;;;;;1329.70;999.90;;;;;;;-140.79;100.00;63287.88;5014225;28;20076;-64
2021/10/28 05:58:40;;;;;;;1326.13;999.90;;;;;;;-140.79;100.00;63287.88;5010465;28;20510;-63
2021/10/28 06:01:05;;;;;;;1328.50;999.90;;;;;;;-140.79;100.00;63287.88;5010450;28;20029;-64
2021/10/28 06:03:32;;;;;;;1327.95;999.90;;;;;;;-140.79;100.00;63287.88;4994987;28;20046;-64
2021/10/28 06:05:57;;;;;;;1326.13;999.90;;;;;;;-140.79;100.00;63287.88;5003870;28;20025;-65
2021/10/28 06:08:23;;;;;;;1325.22;999.90;;;;;;;-140.79;100.00;63287.88;4936339;28;20099;-65
2021/10/28 06:10:49;;;;;;;1324.32;999.90;;;;;;;-140.79;100.00;63287.88;4995624;28;20022;-65
2021/10/28 06:13:14;;;;;;;1326.20;999.90;;;;;;;-140.79;100.00;63287.88;4989516;28;20022;-65
2021/10/28 06:15:40;;;;;;;1332.30;999.90;;;;;;;-140.79;100.00;63287.88;4981639;28;20030;-63
2021/10/28 06:20:48;;;;;;;1330.80;999.90;;;;;;;-140.79;100.00;63287.88;4982210;28;20177;-65
2021/10/28 06:23:13;;;;;;;1331.65;999.90;;;;;;;-140.79;100.00;63287.88;4990581;28;20081;-65
2021/10/28 06:25:39;;;;;;;1328.70;999.90;;;;;;;-140.79;100.00;63287.88;4973536;28;20051;-64
2021/10/28 06:28:04;;;;;;;1327.30;999.90;;;;;;;-140.79;100.00;63287.88;4974439;28;20440;-65
2021/10/28 06:31:37;;;;;;;10.32;5.20;;;;;;;25.07;36.39;95960.06;5049001;27;20622;-66
2021/10/28 06:34:07;;;;;;;12.23;6.47;;;;;;;25.05;36.95;95960.56;5014178;28;20082;-65
2021/10/28 06:36:36;;;;;;;10.30;5.60;;;;;;;25.03;36.73;95959.56;5055962;28;20082;-66
2021/10/28 06:39:03;;;;;;;13.07;7.72;;;;;;;25.07;36.08;95957.31;5047082;28;20044;-64
2021/10/28 06:41:30;;;;;;;13.75;6.70;;;;;;;25.09;35.53;95958.31;4998715;28;20239;-66
2021/10/28 06:43:59;;;;;;;9.70;6.25;;;;;;;25.09;36.71;95963.75;5045362;28;20569;-65
2021/10/28 06:46:25;;;;;;;12.32;6.40;;;;;;;25.11;36.42;95961.31;5054022;28;20037;-64
2021/10/28 06:48:50;;;;;;;8.68;6.28;;;;;;;25.06;36.70;95964.75;5046314;28;20040;-64
2021/10/28 06:51:16;;;;;;;10.88;5.95;;;;;;;25.19;36.71;95962.28;5045707;28;20032;-64
2021/10/28 06:53:55;;;;;;;11.52;6.68;;;;;;;25.16;36.51;95957.81;5041052;28;20107;-64
2021/10/28 07:02:34;;;;;;;8.57;5.97;;;;;;;25.06;36.68;95964.75;5045212;28;20106;-64
2021/10/28 07:04:28;;;;;;;9.60;6.20;;;;;;;25.04;36.40;95956.31;5036882;28;20460;-64
2021/10/28 07:06:53;;;;;;;9.05;5.88;;;;;;;24.99;36.82;95962.53;5046635;28;20036;-64
2021/10/28 07:09:25;;;;;;;9.82;6.40;;;;;;;24.98;36.76;95957.53;5043755;28;20079;-64
2021/10/28 07:12:02;;;;;;;8.32;6.20;;;;;;;24.90;36.72;95960.03;5045527;28;20025;-64
2021/10/28 07:14:28;;;;;;;9.30;6.30;;;;;;;24.83;37.10;95952.31;5048363;28;20032;-63
2021/10/28 07:30:10;;;;;;;8.88;6.18;;;;;;;24.46;37.61;95961.94;5062592;28;20044;-64
2021/10/28 07:33:07;;;;;;;9.95;5.70;;;;;;;24.43;37.60;95967.66;5054534;28;20067;-64
2021/10/28 08:18:29;;;;;;;8.63;6.43;;;;;;;23.87;39.13;95949.56;5053025;28;20543;-65
2021/10/28 08:21:24;;;;;;;8.75;6.60;;;;;;;23.86;39.03;95946.59;5046291;28;20025;-64
2021/10/28 08:24:06;;;;;;;12.23;6.55;;;;;;;23.78;39.13;95940.09;5046031;28;20053;-64
2021/10/28 08:29:32;;;;;;;11.05;6.50;;;;;;;23.74;38.70;95931.41;5059379;28;20463;-64
2021/10/28 08:31:58;;;;;;;10.60;6.78;;;;;;;23.73;38.79;95943.56;5059325;28;20062;-64
2021/10/28 08:34:28;;;;;;;9.82;6.60;;;;;;;23.72;39.13;95936.59;5046177;28;20020;-64
2021/10/28 08:36:55;;;;;;;11.20;6.45;;;;;;;23.71;38.91;95929.69;5047215;28;20029;-64
2021/10/28 08:39:21;;;;;;;10.65;6.05;;;;;;;23.70;39.10;95939.09;5046189;28;20031;-65
2021/10/28 08:41:47;;;;;;;9.88;6.30;;;;;;;23.68;39.23;95936.09;5045870;28;20531;-64
2021/10/28 08:44:19;;;;;;;20.23;12.68;;;;;;;23.67;36.46;95923.69;5046173;28;20052;-64
2021/10/28 08:46:50;;;;;;;20.60;12.18;;;;;;;23.55;36.56;95927.56;5046863;28;20041;-64
2021/10/28 08:49:23;;;;;;;12.75;8.63;;;;;;;23.56;37.57;95923.63;5027144;28;20519;-68
2021/10/28 08:56:54;;;;;;;11.95;6.68;;;;;;;23.60;39.25;95919.44;5052063;28;20020;-65
2021/10/28 08:59:36;;;;;;;11.23;7.00;;;;;;;23.62;38.82;95916.22;5061556;28;20192;-64
2021/10/28 09:24:41;;;;;;;9.98;7.22;;;;;;;23.87;38.84;95905.19;5037952;28;20035;-64
2021/10/28 09:29:47;;;;;;;11.93;7.35;;;;;;;24.01;38.54;95902.25;5050939;28;20234;-64
2021/10/28 09:32:39;;;;;;;11.88;7.10;;;;;;;24.10;38.99;95904.75;5045549;28;20016;-64
2021/10/28 09:51:35;;;;;;;13.53;6.97;;;;;;;25.03;37.59;95872.84;5036595;28;20608;-67
2021/10/28 09:59:26;;;;;;;11.70;6.97;;;;;;;25.37;37.34;95853.13;4993209;28;20133;-65
2021/10/28 10:01:58;;;;;;;11.40;6.78;;;;;;;25.47;37.29;95846.13;5024405;28;20106;-65
2021/10/28 10:04:25;;;;;;;11.40;7.60;;;;;;;25.57;37.31;95838.38;5058034;28;20097;-63
2021/10/28 10:06:52;;;;;;;13.07;6.00;;;;;;;25.76;37.06;95833.84;5050373;28;20087;-63
2021/10/28 10:09:17;;;;;;;9.90;6.45;;;;;;;25.86;36.98;95833.78;5056344;28;20078;-64
2021/10/28 10:11:43;;;;;;;11.82;7.18;;;;;;;25.99;36.67;95825.75;5053510;28;20491;-64
2021/10/28 10:14:08;;;;;;;9.18;6.78;;;;;;;26.08;36.56;95832.91;5046087;28;20479;-63
2021/10/28 10:16:33;;;;;;;8.63;6.53;;;;;;;26.22;36.44;95820.88;5044736;28;20085;-65
2021/10/28 10:19:00;;;;;;;8.85;7.00;;;;;;;26.32;36.20;95814.59;5048943;28;20071;-64
2021/10/28 10:21:36;;;;;;;9.93;6.28;;;;;;;26.42;36.24;95813.03;5059504;28;20087;-67
2021/10/28 10:24:13;;;;;;;9.18;6.97;;;;;;;26.50;36.11;95814.72;5045630;28;20033;-63
2021/10/28 11:30:04;;;;;;;8.20;5.72;;;;;;;27.62;34.95;95724.03;5048362;28;20139;-65
2021/10/28 12:23:22;;;;;;;7.05;5.50;;;;;;;26.28;37.07;95677.94;5055509;28;20118;-64
2021/10/28 12:53:46;;;;;;;8.02;4.90;;;;;;;26.37;37.49;95654.97;5045774;28;20041;-66
2021/10/28 13:06:56;;;;;;;7.13;5.00;;;;;;;26.40;37.15;95653.94;5055883;28;20036;-67
2021/10/28 13:50:21;;;;;;;6.15;4.50;;;;;;;26.66;36.81;95640.47;5038039;28;20032;-67
2021/10/28 13:53:18;;;;;;;5.47;4.18;;;;;;;26.69;36.65;95633.94;5025783;28;20024;-66
2021/10/28 15:27:42;;;;;;;6.43;3.45;;;;;;;24.81;37.96;95652.78;5055031;28;20521;-62
2021/10/28 15:27:59;;;;;;;5.40;3.47;;;;;;;24.52;37.90;95661.59;5056969;28;20032;-67
2021/10/28 15:35:44;;;;;;;4.63;3.40;;;;;;;24.42;38.29;95663.09;5027945;28;20095;-61
2021/10/28 15:57:39;;;;;;;6.22;3.60;;;;;;;24.11;38.80;95674.28;5026887;28;20060;-62
2021/10/28 16:21:53;;;;;;;5.70;3.10;;;;;;;23.82;39.60;95678.78;5020926;28;20035;-62
2021/10/28 16:24:19;;;;;;;8.00;3.83;;;;;;;23.80;39.60;95687.44;5019577;28;20025;-62
2021/10/28 16:26:45;;;;;;;10.68;3.45;;;;;;;23.79;39.30;95685.22;5014636;28;20543;-62
2021/10/28 16:29:12;;;;;;;8.65;3.97;;;;;;;23.83;39.69;95691.19;5011928;28;20026;-62
2021/10/28 16:31:40;;;;;;;12.43;3.85;;;;;;;23.79;40.22;95691.41;5057137;28;20186;-63
2021/10/28 16:34:05;;;;;;;7.95;3.83;;;;;;;23.79;40.04;95690.69;5038473;28;20024;-63
2021/10/28 16:36:30;;;;;;;7.47;4.03;;;;;;;23.78;40.04;95689.19;5048510;28;20033;-63
2021/10/28 16:38:58;;;;;;;8.50;3.30;;;;;;;23.77;40.19;95693.16;5042815;28;20024;-63
2021/10/28 16:41:23;;;;;;;6.60;3.40;;;;;;;23.80;40.20;95689.44;5039463;28;20059;-63
2021/10/28 16:43:49;;;;;;;6.40;3.58;;;;;;;23.83;39.86;95696.63;5061237;28;20037;-64
2021/10/28 16:46:14;;;;;;;7.82;3.60;;;;;;;23.87;40.22;95698.63;5055574;28;20029;-64
2021/10/28 16:48:40;;;;;;;6.90;3.30;;;;;;;23.93;40.08;95696.63;5057690;28;20030;-64
2021/10/28 16:51:06;;;;;;;10.00;4.45;;;;;;;23.99;40.19;95705.56;5050031;28;20025;-63
2021/10/28 16:53:33;;;;;;;6.68;3.28;;;;;;;24.07;39.97;95706.53;5058522;28;20144;-63
2021/10/28 16:55:59;;;;;;;6.05;3.67;;;;;;;24.12;39.47;95713.97;5022187;28;20270;-63
2021/10/28 16:58:24;;;;;;;7.95;3.55;;;;;;;24.21;39.50;95705.53;5072592;28;20115;-63
2021/10/28 17:00:50;;;;;;;9.18;3.83;;;;;;;24.32;39.15;95712.97;5061339;28;20505;-61
2021/10/28 17:03:15;;;;;;;9.95;3.78;;;;;;;24.43;39.14;95705.53;5036617;28;20568;-62
2021/10/28 17:05:42;;;;;;;7.10;3.20;;;;;;;24.47;39.20;95711.50;5073548;28;20024;-61
2021/10/28 17:08:07;;;;;;;8.15;3.65;;;;;;;24.55;39.27;95707.00;5060503;28;20028;-62
2021/10/28 17:10:33;;;;;;;7.38;3.78;;;;;;;24.57;39.37;95704.50;5049200;28;20013;-63
2021/10/28 17:12:59;;;;;;;8.95;3.88;;;;;;;24.64;38.94;95704.00;5046062;28;20020;-62
2021/10/28 17:15:24;;;;;;;8.27;4.05;;;;;;;24.67;39.35;95709.19;5058478;28;20021;-63
2021/10/28 17:17:50;;;;;;;6.30;3.58;;;;;;;24.69;39.25;95711.44;5055688;28;20021;-63
2021/10/28 17:20:18;;;;;;;5.47;3.30;;;;;;;24.76;38.58;95710.94;5060701;28;20029;-62
2021/10/28 17:22:43;;;;;;;7.25;3.67;;;;;;;24.80;39.20;95711.38;5044795;28;20025;-62
2021/10/28 17:25:10;;;;;;;8.68;3.67;;;;;;;24.94;38.61;95716.56;5068058;28;20031;-62
2021/10/28 17:27:35;;;;;;;8.18;3.83;;;;;;;24.93;38.88;95718.56;5052413;28;20029;-62
2021/10/28 17:30:04;;;;;;;8.02;3.58;;;;;;;24.99;38.25;95719.31;5066017;28;20507;-63
2021/10/28 17:32:30;;;;;;;8.88;4.05;;;;;;;25.02;38.51;95714.81;5037425;28;20155;-63
2021/10/28 17:34:57;;;;;;;6.88;3.55;;;;;;;25.07;38.39;95719.53;5068319;28;20111;-62
2021/10/28 17:37:23;;;;;;;7.82;3.80;;;;;;;25.11;38.22;95715.28;5048926;28;20503;-63
2021/10/28 17:39:48;;;;;;;5.82;3.30;;;;;;;25.13;37.89;95720.25;5068812;28;20021;-63
2021/10/28 17:42:15;;;;;;;5.85;3.10;;;;;;;25.17;38.10;95718.75;5045800;28;20380;-65
2021/10/28 17:44:52;;;;;;;7.25;4.22;;;;;;;25.18;38.09;95725.69;5043214;28;20033;-65
2021/10/28 17:47:17;;;;;;;6.53;3.50;;;;;;;25.22;38.24;95726.16;5060883;28;20023;-63
2021/10/28 17:49:43;;;;;;;7.05;3.75;;;;;;;25.27;37.76;95728.13;5050989;28;20029;-63
2021/10/28 17:52:08;;;;;;;9.40;3.95;;;;;;;25.37;37.51;95726.59;5049294;28;20039;-63
2021/10/28 17:54:35;;;;;;;7.93;3.95;;;;;;;25.42;37.55;95728.56;5050711;28;20029;-63
2021/10/28 17:57:01;;;;;;;7.05;3.40;;;;;;;25.48;37.61;95726.53;5052733;28;20457;-63
2021/10/28 17:59:26;;;;;;;7.25;3.15;;;;;;;25.65;37.23;95724.47;5054065;28;20086;-63
2021/10/28 18:01:52;;;;;;;6.35;3.53;;;;;;;25.67;36.67;95727.44;5049424;28;20162;-63
2021/10/28 18:04:17;;;;;;;7.18;3.70;;;;;;;25.69;37.13;95733.16;5057349;28;20035;-63
2021/10/28 18:06:43;;;;;;;6.65;4.28;;;;;;;25.65;36.93;95729.94;5047521;28;20025;-63
2021/10/28 18:09:09;;;;;;;5.80;3.00;;;;;;;25.70;36.91;95735.38;4973332;28;20041;-63
2021/10/28 18:11:34;;;;;;;7.57;3.88;;;;;;;25.77;36.71;95736.81;5047355;28;20035;-63
2021/10/28 18:14:00;;;;;;;5.32;2.95;;;;;;;25.76;36.81;95730.63;5034532;28;20376;-63
2021/10/28 18:16:29;;;;;;;5.82;3.70;;;;;;;25.79;36.65;95735.81;5044539;28;20335;-63
2021/10/28 18:18:55;;;;;;;6.10;3.55;;;;;;;25.80;36.67;95736.56;5035205;28;20107;-63
2021/10/28 18:21:24;;;;;;;6.68;3.47;;;;;;;25.86;36.63;95729.06;5043242;28;20056;-63
2021/10/28 18:23:50;;;;;;;7.03;3.78;;;;;;;25.83;36.71;95735.56;5052216;28;20139;-62
2021/10/28 18:26:19;;;;;;;8.40;3.60;;;;;;;25.86;36.70;95740.75;5042490;28;20163;-62
2021/10/28 18:28:45;;;;;;;6.88;3.47;;;;;;;25.87;36.61;95746.94;5042732;28;20029;-62
2021/10/28 18:31:11;;;;;;;7.60;3.17;;;;;;;25.91;36.78;95748.16;5049630;28;20103;-62
2021/10/28 18:33:36;;;;;;;6.20;3.28;;;;;;;25.91;36.56;95737.22;5000396;28;20041;-62
2021/10/28 18:36:02;;;;;;;4.47;3.15;;;;;;;25.94;36.53;95747.16;5018206;28;20026;-63
2021/10/28 18:38:30;;;;;;;5.68;3.20;;;;;;;25.98;36.38;95741.41;5001852;28;20643;-63
2021/10/28 18:40:56;;;;;;;6.22;3.33;;;;;;;25.93;36.60;95740.22;5035436;28;20037;-62
2021/10/28 18:43:21;;;;;;;4.97;2.92;;;;;;;25.88;36.75;95743.72;5004202;28;20116;-62
2021/10/28 18:45:47;;;;;;;5.80;3.80;;;;;;;25.96;36.48;95738.44;5000502;28;20030;-63
2021/10/28 18:48:13;;;;;;;6.70;3.65;;;;;;;26.07;36.25;95739.09;5006294;28;20464;-63
2021/10/28 18:50:38;;;;;;;4.50;3.17;;;;;;;26.15;36.19;95728.34;4997979;28;20025;-63
2021/10/28 18:53:05;;;;;;;5.35;3.38;;;;;;;26.14;36.13;95738.53;5006372;28;20038;-63
2021/10/28 18:55:30;;;;;;;5.35;3.58;;;;;;;26.24;35.96;95728.75;5014641;28;20424;-62
2021/10/28 18:57:56;;;;;;;7.40;3.70;;;;;;;26.30;35.78;95740.44;5044982;28;20021;-61
2021/10/28 19:00:21;;;;;;;6.35;3.40;;;;;;;26.32;35.55;95743.38;5014961;28;20029;-60
2021/10/28 19:02:47;;;;;;;5.55;3.53;;;;;;;26.28;35.80;95748.41;5013310;28;20038;-60
2021/10/28 19:05:13;;;;;;;4.45;3.15;;;;;;;26.22;35.85;95739.47;5003049;28;20033;-62
2021/10/28 19:07:39;;;;;;;6.00;3.50;;;;;;;26.17;36.04;95743.00;5019715;28;20040;-62
2021/10/28 19:10:05;;;;;;;5.97;3.60;;;;;;;26.20;35.95;95747.44;5004565;28;20029;-63
2021/10/28 19:12:30;;;;;;;6.07;3.30;;;;;;;26.20;35.70;95744.69;5017458;28;20789;-63
2021/10/28 19:14:56;;;;;;;5.60;3.50;;;;;;;26.17;36.08;95758.69;5005156;28;20091;-62
2021/10/28 19:17:21;;;;;;;5.13;3.53;;;;;;;26.19;35.88;95756.94;5015670;28;20025;-62
2021/10/28 19:19:47;;;;;;;5.35;3.30;;;;;;;26.16;35.83;95752.47;5004523;28;20071;-62
2021/10/28 19:22:12;;;;;;;4.95;3.22;;;;;;;26.13;36.20;95756.22;5013711;28;20574;-62
2021/10/28 19:24:38;;;;;;;5.47;3.53;;;;;;;26.24;35.69;95752.66;5002058;28;20424;-62
2021/10/28 19:27:03;;;;;;;5.82;3.60;;;;;;;26.17;36.08;95759.41;5020447;28;20029;-62
2021/10/28 19:29:31;;;;;;;4.82;3.13;;;;;;;26.21;36.08;95754.41;5016912;28;20120;-62
2021/10/28 19:32:03;;;;;;;4.80;3.40;;;;;;;26.19;35.87;95770.63;5045514;28;20514;-64
2021/10/28 19:34:35;;;;;;;5.18;2.92;;;;;;;26.23;35.78;95767.59;5046941;28;20091;-63
2021/10/28 19:47:25;;;;;;;5.38;3.20;;;;;;;26.21;35.75;95775.59;5040512;28;20422;-63
2021/10/28 19:49:50;;;;;;;5.40;3.42;;;;;;;26.25;35.88;95776.78;5048891;28;20024;-62
2021/10/28 19:52:16;;;;;;;4.95;3.13;;;;;;;26.28;35.78;95770.31;5048933;28;20036;-64